Time;durP1;ratioP1;P1;durP2;ratioP2;P2;SDS_P1;SDS_P2;PMS_P1;PMS_P2;Temp;Humidity;BMP_temperature;BMP_pressure;BME280_temperature;BME280_humidity;BME280_pressure;Samples;Min_cycle;Max_cycle;Signal;HPM_P1;HPM_P2
2022/01/30 00:01:37;;;;;;;2.83;1.77;;;18.10;39.80;;;;;;5018696;28;20222;-66
2022/01/30 00:04:03;;;;;;;2.50;1.70;;;18.10;39.80;;;;;;5020960;28;20216;-66
2022/01/30 00:06:28;;;;;;;1.80;1.60;;;18.10;39.70;;;;;;5022243;28;20220;-66
2022/01/30 00:08:54;;;;;;;5.57;1.60;;;18.10;39.70;;;;;;5020965;28;20657;-66
2022/01/30 00:11:23;;;;;;;3.40;1.67;;;18.10;39.70;;;;;;5018299;28;20656;-66
2022/01/30 00:13:50;;;;;;;3.10;1.53;;;18.10;39.70;;;;;;5018036;28;20673;-66
2022/01/30 00:16:18;;;;;;;1.80;1.57;;;18.10;39.70;;;;;;5020999;28;20448;-66
2022/01/30 00:21:48;;;;;;;2.13;1.70;;;18.10;39.70;;;;;;5023332;28;20422;-66
2022/01/30 00:24:21;;;;;;;4.50;1.50;;;18.10;39.70;;;;;;5021248;28;20503;-66
2022/01/30 00:26:47;;;;;;;3.40;1.80;;;18.10;39.70;;;;;;5020481;28;20522;-66
2022/01/30 00:29:13;;;;;;;2.10;1.53;;;18.10;39.70;;;;;;5018866;28;20431;-66
2022/01/30 00:31:39;;;;;;;3.17;2.07;;;18.00;39.60;;;;;;5020379;28;20448;-66
2022/01/30 00:34:05;;;;;;;2.40;1.50;;;18.00;39.50;;;;;;5018476;28;20298;-66
2022/01/30 00:36:31;;;;;;;1.80;1.50;;;18.10;39.60;;;;;;5019788;28;20891;-66
2022/01/30 00:38:58;;;;;;;3.33;1.70;;;18.00;39.50;;;;;;5023208;28;20219;-66
2022/01/30 00:41:23;;;;;;;2.70;1.87;;;18.00;39.50;;;;;;5020242;28;20426;-66
2022/01/30 00:43:49;;;;;;;1.70;1.60;;;18.00;39.50;;;;;;5018325;28;20424;-66
2022/01/30 00:46:15;;;;;;;2.07;1.83;;;18.10;39.60;;;;;;5021310;28;20247;-66
2022/01/30 00:48:40;;;;;;;1.90;1.70;;;18.00;39.50;;;;;;5020497;28;20231;-66
2022/01/30 00:51:06;;;;;;;2.50;1.90;;;18.00;40.20;;;;;;5019587;28;20661;-66
2022/01/30 00:53:32;;;;;;;2.20;2.00;;;18.00;39.50;;;;;;5023339;28;20608;-66
2022/01/30 00:55:57;;;;;;;1.90;1.57;;;18.00;39.50;;;;;;5022409;28;20260;-66
2022/01/30 00:58:23;;;;;;;2.17;1.77;;;18.00;39.50;;;;;;5018826;28;20285;-66
2022/01/30 01:00:48;;;;;;;1.73;1.43;;;18.00;39.50;;;;;;5020688;28;20221;-66
2022/01/30 01:03:14;;;;;;;1.77;1.50;;;18.00;39.40;;;;;;5017628;28;20216;-66
2022/01/30 01:05:39;;;;;;;3.63;1.40;;;18.00;39.40;;;;;;5017228;28;20212;-65
2022/01/30 01:24:10;;;;;;;2.00;1.30;;;18.00;39.30;;;;;;5021482;28;20452;-65
2022/01/30 01:26:37;;;;;;;2.20;2.00;;;18.00;39.30;;;;;;5018008;28;20520;-66
2022/01/30 01:29:04;;;;;;;3.23;1.40;;;18.00;39.30;;;;;;5018533;28;20227;-67
2022/01/30 01:31:29;;;;;;;2.90;1.77;;;18.00;39.20;;;;;;5016460;28;20450;-65
2022/01/30 01:36:25;;;;;;;2.00;1.50;;;18.00;40.00;;;;;;5022234;28;20299;-65
2022/01/30 01:38:50;;;;;;;1.57;1.37;;;18.00;39.10;;;;;;5022789;28;20430;-65
2022/01/30 01:41:19;;;;;;;2.90;1.63;;;18.00;39.10;;;;;;5026562;28;20553;-67
2022/01/30 01:43:46;;;;;;;2.47;1.70;;;18.00;39.10;;;;;;5022601;28;20227;-65
2022/01/30 01:46:18;;;;;;;3.53;1.77;;;18.00;39.10;;;;;;5017935;28;20803;-65
2022/01/30 01:48:45;;;;;;;3.47;1.70;;;18.00;39.10;;;;;;5023819;28;20448;-65
2022/01/30 01:51:17;;;;;;;2.20;1.50;;;18.00;39.10;;;;;;5022307;28;20424;-66
2022/01/30 01:53:44;;;;;;;2.93;1.73;;;18.00;39.10;;;;;;5023500;28;20432;-65
2022/01/30 01:56:11;;;;;;;2.60;1.63;;;18.00;39.00;;;;;;5022669;28;20466;-66
2022/01/30 01:58:37;;;;;;;2.23;1.80;;;18.00;39.00;;;;;;5025404;28;20420;-65
2022/01/30 02:01:03;;;;;;;2.30;1.70;;;17.90;39.00;;;;;;5023600;28;20504;-66
2022/01/30 02:03:29;;;;;;;2.80;2.33;;;18.00;39.00;;;;;;5022690;28;20213;-65
2022/01/30 02:05:59;;;;;;;4.27;1.67;;;18.00;39.00;;;;;;5022170;28;20216;-65
2022/01/30 02:08:35;;;;;;;4.70;1.90;;;18.00;38.90;;;;;;5025415;28;20443;-65
2022/01/30 02:11:28;;;;;;;5.23;1.67;;;17.90;38.80;;;;;;5022158;28;20975;-65
2022/01/30 02:27:15;;;;;;;4.23;1.70;;;17.90;38.80;;;;;;5024407;28;20437;-65
2022/01/30 02:29:40;;;;;;;2.13;1.93;;;18.00;38.80;;;;;;5024487;28;20427;-65
2022/01/30 02:32:06;;;;;;;1.50;1.40;;;17.90;38.80;;;;;;5020940;28;20514;-66
2022/01/30 02:34:33;;;;;;;2.40;1.57;;;17.90;38.70;;;;;;5022986;28;20584;-65
2022/01/30 02:37:00;;;;;;;2.50;1.40;;;17.90;38.70;;;;;;5024471;28;20266;-66
2022/01/30 02:39:26;;;;;;;1.70;1.50;;;17.90;38.70;;;;;;5019381;28;20495;-65
2022/01/30 02:41:52;;;;;;;5.87;2.10;;;17.90;38.60;;;;;;5024312;28;20452;-65
2022/01/30 02:52:39;;;;;;;2.00;1.60;;;17.90;38.60;;;;;;5017792;28;20426;-65
2022/01/30 02:55:06;;;;;;;1.80;1.50;;;17.90;38.60;;;;;;5022163;28;20223;-65
2022/01/30 02:57:31;;;;;;;2.83;1.70;;;17.90;38.60;;;;;;5029799;28;20981;-66
2022/01/30 02:59:57;;;;;;;2.90;1.50;;;17.90;38.50;;;;;;5022753;28;20451;-64
2022/01/30 03:02:22;;;;;;;3.50;1.70;;;17.90;38.50;;;;;;5023570;28;20679;-65
2022/01/30 03:04:48;;;;;;;2.30;1.40;;;17.90;38.50;;;;;;5026532;28;20560;-65
2022/01/30 03:07:14;;;;;;;3.23;1.97;;;17.90;38.40;;;;;;5022069;28;20495;-65
2022/01/30 03:09:39;;;;;;;2.33;1.60;;;17.90;38.40;;;;;;5018305;28;20289;-66
2022/01/30 03:12:06;;;;;;;2.67;1.60;;;17.90;38.40;;;;;;5024093;28;20739;-69
2022/01/30 03:14:32;;;;;;;2.90;1.70;;;17.90;38.40;;;;;;5021345;28;20215;-68
2022/01/30 03:16:58;;;;;;;2.40;1.53;;;17.90;38.40;;;;;;5020207;28;20481;-66
2022/01/30 03:19:23;;;;;;;2.60;1.57;;;17.90;38.30;;;;;;5021830;28;20453;-67
2022/01/30 03:21:49;;;;;;;3.13;1.40;;;17.90;38.30;;;;;;5025038;28;20741;-66
2022/01/30 03:24:15;;;;;;;2.00;1.80;;;17.90;38.30;;;;;;5020580;28;20220;-66
2022/01/30 03:26:41;;;;;;;2.07;1.63;;;17.90;38.30;;;;;;5020020;28;20216;-66
2022/01/30 03:29:08;;;;;;;2.30;1.50;;;17.90;38.30;;;;;;5021033;28;20238;-66
2022/01/30 03:31:39;;;;;;;2.27;1.63;;;17.90;38.20;;;;;;5020648;28;20492;-67
2022/01/30 03:34:07;;;;;;;5.57;1.87;;;17.90;38.30;;;;;;5018943;28;20525;-66
2022/01/30 03:36:33;;;;;;;3.83;1.80;;;17.90;38.20;;;;;;5018895;28;20756;-66
2022/01/30 03:38:59;;;;;;;1.57;1.47;;;17.90;38.20;;;;;;5018953;28;20461;-66
2022/01/30 03:41:26;;;;;;;3.10;2.10;;;17.90;38.10;;;;;;5023218;28;20211;-65
2022/01/30 03:43:52;;;;;;;4.23;1.87;;;17.90;37.80;;;;;;5016236;28;20274;-66
2022/01/30 03:46:19;;;;;;;4.57;2.17;;;17.90;37.40;;;;;;5023263;28;20445;-65
2022/01/30 03:48:45;;;;;;;4.27;1.70;;;18.00;37.50;;;;;;5021165;28;20559;-65
2022/01/30 03:51:11;;;;;;;1.93;1.70;;;18.00;37.50;;;;;;5020960;28;20459;-65
2022/01/30 03:53:37;;;;;;;4.80;1.63;;;18.00;37.30;;;;;;5023845;28;20538;-66
2022/01/30 03:56:03;;;;;;;3.43;2.07;;;18.00;37.10;;;;;;5019486;28;20224;-66
2022/01/30 03:58:29;;;;;;;4.53;1.70;;;18.00;36.80;;;;;;5017301;28;20220;-65
2022/01/30 04:00:55;;;;;;;4.23;2.00;;;18.00;36.70;;;;;;5020537;28;20946;-65
2022/01/30 04:03:20;;;;;;;4.20;2.00;;;18.00;36.60;;;;;;5021300;28;20649;-66
2022/01/30 04:05:46;;;;;;;5.87;2.37;;;18.00;36.40;;;;;;5025734;28;20215;-65
2022/01/30 04:08:12;;;;;;;3.73;1.67;;;18.00;36.30;;;;;;5019262;28;20239;-66
2022/01/30 04:10:38;;;;;;;3.97;1.67;;;18.10;36.20;;;;;;5024359;28;20291;-66
2022/01/30 04:13:04;;;;;;;3.83;1.70;;;18.10;36.00;;;;;;5020501;28;20274;-65
2022/01/30 04:15:30;;;;;;;4.60;1.80;;;18.10;35.90;;;;;;5017881;28;20448;-65
2022/01/30 04:17:55;;;;;;;4.47;2.10;;;18.10;35.70;;;;;;5018816;28;20231;-65
2022/01/30 04:20:21;;;;;;;3.73;1.60;;;18.10;35.60;;;;;;5019861;28;20236;-65
2022/01/30 04:22:47;;;;;;;3.60;1.67;;;18.10;35.50;;;;;;5025937;28;20223;-65
2022/01/30 04:25:13;;;;;;;2.90;1.70;;;18.10;35.40;;;;;;5021308;28;20243;-66
2022/01/30 04:27:38;;;;;;;3.50;2.07;;;18.10;35.30;;;;;;5020609;28;20219;-65
2022/01/30 04:30:06;;;;;;;3.57;2.20;;;18.10;35.30;;;;;;5019042;28;20920;-66
2022/01/30 04:32:33;;;;;;;3.63;1.83;;;18.10;35.10;;;;;;5017906;28;20225;-68
2022/01/30 04:35:01;;;;;;;3.83;1.90;;;18.10;35.10;;;;;;5018342;28;20438;-65
2022/01/30 04:37:45;;;;;;;3.20;1.73;;;18.10;35.00;;;;;;5014191;28;20437;-66
2022/01/30 04:56:57;;;;;;;2.30;1.80;;;18.10;34.80;;;;;;5020682;28;20555;-67
2022/01/30 05:09:28;;;;;;;5.30;1.87;;;18.10;34.50;;;;;;5020403;28;20453;-65
2022/01/30 05:11:54;;;;;;;2.73;2.13;;;18.10;34.50;;;;;;5023404;28;20626;-65
2022/01/30 05:14:24;;;;;;;4.17;1.70;;;18.10;35.10;;;;;;5016378;28;20459;-66
2022/01/30 05:16:50;;;;;;;3.90;2.17;;;18.10;34.30;;;;;;5020838;28;20443;-66
2022/01/30 05:19:15;;;;;;;3.30;1.80;;;18.10;34.30;;;;;;5023537;28;20423;-66
2022/01/30 05:21:41;;;;;;;3.47;1.87;;;18.10;34.40;;;;;;5019045;28;21333;-66
2022/01/30 05:24:08;;;;;;;2.23;1.70;;;18.10;34.40;;;;;;5019869;28;20223;-66
2022/01/30 05:26:41;;;;;;;2.13;1.60;;;18.20;34.50;;;;;;5019137;28;20222;-66
2022/01/30 05:29:07;;;;;;;6.20;1.73;;;18.20;34.40;;;;;;5015852;28;20833;-66
2022/01/30 05:31:33;;;;;;;3.00;1.40;;;18.20;34.40;;;;;;5021237;28;20448;-66
2022/01/30 05:33:59;;;;;;;3.50;1.50;;;18.20;34.50;;;;;;5019488;28;20473;-66
2022/01/30 05:36:25;;;;;;;2.67;1.50;;;18.20;34.60;;;;;;5016316;28;20224;-66
2022/01/30 05:38:51;;;;;;;3.80;1.53;;;18.20;34.60;;;;;;5022398;28;20448;-66
2022/01/30 05:41:17;;;;;;;3.07;1.90;;;18.20;34.50;;;;;;5020726;28;20439;-66
2022/01/30 05:43:46;;;;;;;2.73;1.50;;;18.20;34.40;;;;;;5021539;28;20419;-67
2022/01/30 05:46:27;;;;;;;4.20;1.53;;;18.20;34.40;;;;;;5018145;28;20460;-67
2022/01/30 05:48:53;;;;;;;3.10;2.10;;;18.30;34.40;;;;;;5016894;28;20472;-66
2022/01/30 05:51:18;;;;;;;3.10;1.53;;;18.30;34.30;;;;;;5016509;28;20435;-66
2022/01/30 05:53:44;;;;;;;2.60;1.57;;;18.30;34.20;;;;;;5017632;28;20297;-66
2022/01/30 05:56:12;;;;;;;1.50;1.30;;;18.30;34.10;;;;;;5016255;28;20211;-65
2022/01/30 05:58:38;;;;;;;2.30;1.50;;;18.30;34.20;;;;;;5022300;28;20227;-66
2022/01/30 06:01:04;;;;;;;2.80;1.57;;;18.30;34.20;;;;;;5020093;28;20813;-66
2022/01/30 06:03:29;;;;;;;3.00;2.07;;;18.30;34.10;;;;;;5017053;28;20423;-65
2022/01/30 06:05:55;;;;;;;2.83;1.43;;;18.30;34.20;;;;;;5017166;28;20707;-65
2022/01/30 06:08:40;;;;;;;3.37;2.00;;;18.30;34.20;;;;;;5017285;28;20235;-65
2022/01/30 06:11:10;;;;;;;3.60;1.70;;;18.30;34.20;;;;;;5018486;28;20776;-65
2022/01/30 06:13:36;;;;;;;2.70;1.43;;;18.30;34.20;;;;;;5016780;28;20514;-66
2022/01/30 06:16:02;;;;;;;3.77;1.97;;;18.30;34.10;;;;;;5021038;28;20510;-67
2022/01/30 06:18:27;;;;;;;1.57;1.33;;;18.30;34.40;;;;;;5020528;28;20215;-65
2022/01/30 06:20:53;;;;;;;1.50;1.37;;;18.30;34.70;;;;;;5016312;28;20211;-65
2022/01/30 06:23:22;;;;;;;1.80;1.30;;;18.30;35.10;;;;;;5016032;28;20223;-66
2022/01/30 06:25:48;;;;;;;1.63;1.27;;;18.20;35.40;;;;;;5023313;28;20457;-65
2022/01/30 06:28:14;;;;;;;2.10;1.50;;;18.20;35.60;;;;;;5024737;28;20879;-65
2022/01/30 06:30:40;;;;;;;1.67;1.23;;;18.20;35.80;;;;;;5020727;28;20994;-65
2022/01/30 06:33:05;;;;;;;1.53;1.30;;;18.20;36.10;;;;;;5022996;28;20224;-65
2022/01/30 06:35:31;;;;;;;3.87;1.57;;;18.20;36.20;;;;;;5026829;28;20663;-68
2022/01/30 06:37:56;;;;;;;1.93;1.40;;;18.20;36.40;;;;;;5023585;28;20591;-65
2022/01/30 06:40:22;;;;;;;2.50;1.60;;;18.20;36.50;;;;;;5022618;28;20215;-66
2022/01/30 06:42:47;;;;;;;2.07;1.37;;;18.10;36.60;;;;;;5019443;28;20716;-65
2022/01/30 06:45:13;;;;;;;1.50;1.10;;;18.20;36.70;;;;;;5022488;28;20663;-65
2022/01/30 06:47:41;;;;;;;1.57;1.10;;;18.20;36.80;;;;;;5023188;28;20230;-65
2022/01/30 06:50:07;;;;;;;1.33;1.23;;;18.10;36.90;;;;;;5024181;28;20223;-66
2022/01/30 06:52:32;;;;;;;2.40;1.20;;;18.10;37.00;;;;;;5020847;28;20415;-67
2022/01/30 06:54:58;;;;;;;1.73;1.30;;;18.20;37.10;;;;;;5020935;28;20844;-66
2022/01/30 06:57:24;;;;;;;3.27;1.37;;;18.20;37.30;;;;;;5021693;28;20609;-66
2022/01/30 06:59:49;;;;;;;2.30;1.60;;;18.20;37.30;;;;;;5025247;28;20215;-72
2022/01/30 07:02:15;;;;;;;2.73;1.30;;;18.10;37.40;;;;;;5022460;28;20671;-75
2022/01/30 07:04:40;;;;;;;2.00;1.23;;;18.10;37.50;;;;;;5020015;28;20728;-68
2022/01/30 07:07:06;;;;;;;2.53;1.77;;;18.10;37.50;;;;;;5023274;28;20223;-75
2022/01/30 07:09:32;;;;;;;3.47;1.33;;;18.20;37.50;;;;;;5018480;28;20226;-68
2022/01/30 07:11:58;;;;;;;4.40;1.50;;;18.20;37.40;;;;;;5025399;28;20276;-65
2022/01/30 07:14:24;;;;;;;2.80;1.27;;;18.20;37.20;;;;;;5020463;28;20803;-67
2022/01/30 07:16:49;;;;;;;3.70;1.40;;;18.30;37.20;;;;;;5020737;28;20239;-64
2022/01/30 07:19:15;;;;;;;1.87;1.10;;;18.30;37.00;;;;;;5027079;28;20226;-64
2022/01/30 07:21:40;;;;;;;1.73;1.40;;;18.30;37.00;;;;;;5020832;28;20215;-64
2022/01/30 07:24:06;;;;;;;3.37;1.30;;;18.30;37.00;;;;;;5021015;28;20699;-65
2022/01/30 07:26:32;;;;;;;1.83;1.10;;;18.30;37.10;;;;;;5019812;28;20311;-63
2022/01/30 07:28:59;;;;;;;2.57;1.20;;;18.30;37.10;;;;;;5017295;28;20739;-64
2022/01/30 07:31:25;;;;;;;3.23;1.40;;;18.30;37.20;;;;;;5036928;28;20902;-63
2022/01/30 07:33:50;;;;;;;1.63;1.20;;;18.30;37.30;;;;;;5019401;28;20547;-62
2022/01/30 07:36:16;;;;;;;1.47;1.23;;;18.30;37.30;;;;;;5020709;28;20223;-63
2022/01/30 07:38:42;;;;;;;2.53;1.20;;;18.30;38.20;;;;;;5019865;28;20231;-63
2022/01/30 07:41:08;;;;;;;4.57;1.93;;;18.30;37.50;;;;;;5024270;28;20223;-64
2022/01/30 07:43:34;;;;;;;1.40;1.30;;;18.30;37.60;;;;;;5018574;28;20457;-60
2022/01/30 07:46:00;;;;;;;2.70;1.10;;;18.30;37.70;;;;;;5018230;28;20427;-62
2022/01/30 07:48:26;;;;;;;2.00;1.43;;;18.30;37.70;;;;;;5022202;28;20427;-63
2022/01/30 07:50:51;;;;;;;3.20;1.60;;;18.30;38.50;;;;;;5024020;28;20801;-59
2022/01/30 07:53:17;;;;;;;1.77;1.23;;;18.30;37.80;;;;;;5019627;28;20266;-62
2022/01/30 07:55:43;;;;;;;2.47;1.60;;;18.30;37.70;;;;;;5023594;28;20235;-61
2022/01/30 07:58:10;;;;;;;1.40;1.30;;;18.20;37.60;;;;;;5025690;28;20253;-62
2022/01/30 08:00:37;;;;;;;1.80;1.40;;;18.30;37.70;;;;;;5023278;28;20244;-61
2022/01/30 08:03:03;;;;;;;1.77;1.20;;;18.20;37.60;;;;;;5020829;28;20455;-62
2022/01/30 08:05:29;;;;;;;4.90;1.00;;;18.30;37.70;;;;;;5020609;28;20424;-61
2022/01/30 08:07:54;;;;;;;1.30;1.10;;;18.20;37.60;;;;;;5023068;28;20541;-61
2022/01/30 08:10:20;;;;;;;1.30;1.20;;;18.20;37.60;;;;;;5023412;28;20821;-61
2022/01/30 08:12:46;;;;;;;1.63;1.43;;;18.20;37.60;;;;;;5023502;28;20238;-60
2022/01/30 08:15:12;;;;;;;2.20;1.50;;;18.20;37.60;;;;;;5019612;28;20219;-61
2022/01/30 08:17:38;;;;;;;1.40;1.30;;;18.20;37.60;;;;;;5019405;28;20212;-61
2022/01/30 08:20:06;;;;;;;2.77;1.33;;;18.20;37.60;;;;;;5020325;28;20211;-64
2022/01/30 08:22:32;;;;;;;1.20;1.03;;;18.20;37.60;;;;;;5017287;28;20434;-63
2022/01/30 08:24:57;;;;;;;4.17;1.50;;;18.20;37.60;;;;;;5020042;28;20783;-64
2022/01/30 08:27:23;;;;;;;4.60;1.30;;;18.20;37.60;;;;;;5012829;28;20611;-64
2022/01/30 08:29:49;;;;;;;2.20;1.00;;;18.20;37.60;;;;;;5022570;28;20498;-64
2022/01/30 08:32:14;;;;;;;2.27;1.17;;;18.20;37.60;;;;;;5024284;28;20227;-66
2022/01/30 08:34:40;;;;;;;1.70;1.20;;;18.20;37.60;;;;;;5021955;28;20235;-63
2022/01/30 08:37:06;;;;;;;2.30;1.20;;;18.20;37.60;;;;;;5023750;28;20238;-63
2022/01/30 08:39:33;;;;;;;1.83;1.23;;;18.20;37.60;;;;;;5019669;28;20764;-62
2022/01/30 08:41:59;;;;;;;3.43;1.30;;;18.20;37.60;;;;;;5019092;28;20219;-62
2022/01/30 08:44:24;;;;;;;1.37;1.20;;;18.20;37.60;;;;;;5017882;28;20457;-62
2022/01/30 08:46:50;;;;;;;2.20;1.30;;;18.20;37.60;;;;;;5019132;28;20668;-62
2022/01/30 08:49:16;;;;;;;1.50;1.23;;;18.20;37.60;;;;;;5015175;28;20576;-62
2022/01/30 08:51:41;;;;;;;2.07;1.50;;;18.20;37.60;;;;;;5020403;28;20219;-63
2022/01/30 08:54:07;;;;;;;4.27;1.50;;;18.20;37.60;;;;;;5020645;28;20218;-63
2022/01/30 08:56:32;;;;;;;2.57;1.30;;;18.20;37.60;;;;;;5023088;28;20227;-62
2022/01/30 08:58:58;;;;;;;1.87;1.10;;;18.20;37.60;;;;;;5022372;28;20649;-62
2022/01/30 09:01:24;;;;;;;1.40;1.00;;;18.20;37.60;;;;;;5021266;28;20336;-61
2022/01/30 09:03:50;;;;;;;5.43;1.87;;;18.20;37.60;;;;;;5021712;28;20211;-60
2022/01/30 09:06:16;;;;;;;10.10;1.53;;;18.20;37.60;;;;;;5018378;28;20215;-61
2022/01/30 09:08:42;;;;;;;4.90;2.00;;;18.20;37.60;;;;;;5023413;28;20362;-63
2022/01/30 09:11:08;;;;;;;4.30;1.40;;;18.20;37.60;;;;;;5023494;28;20527;-61
2022/01/30 09:13:33;;;;;;;6.83;1.53;;;18.30;37.70;;;;;;5019308;28;20612;-63
2022/01/30 09:16:01;;;;;;;6.30;2.03;;;18.20;37.60;;;;;;5017193;28;20242;-62
2022/01/30 09:18:27;;;;;;;7.60;1.30;;;18.20;37.60;;;;;;5017684;28;20246;-63
2022/01/30 09:20:54;;;;;;;4.67;1.47;;;18.20;37.60;;;;;;5018125;28;20461;-62
2022/01/30 09:23:20;;;;;;;2.70;1.53;;;18.20;37.60;;;;;;5021346;28;20219;-63
2022/01/30 09:25:46;;;;;;;4.90;1.80;;;18.20;37.60;;;;;;5015563;28;20795;-62
2022/01/30 09:28:12;;;;;;;5.50;1.23;;;18.20;37.60;;;;;;5023211;28;20463;-62
2022/01/30 09:30:38;;;;;;;7.43;1.47;;;18.20;37.60;;;;;;5017914;28;20565;-62
2022/01/30 09:33:04;;;;;;;5.00;1.50;;;18.20;37.70;;;;;;5019764;28;20992;-65
2022/01/30 09:35:29;;;;;;;4.07;1.33;;;18.20;37.60;;;;;;5020945;28;20588;-63
2022/01/30 09:37:57;;;;;;;1.63;1.20;;;18.20;37.60;;;;;;5020102;28;20680;-63
2022/01/30 09:40:23;;;;;;;1.90;1.40;;;18.20;37.60;;;;;;5016174;28;20229;-63
2022/01/30 09:42:50;;;;;;;5.23;1.20;;;18.20;37.60;;;;;;5019023;28;21396;-63
2022/01/30 09:45:18;;;;;;;2.03;1.37;;;18.20;37.60;;;;;;5021145;28;20510;-63
2022/01/30 09:47:45;;;;;;;2.10;1.43;;;18.20;37.60;;;;;;5022932;28;20428;-62
2022/01/30 09:50:11;;;;;;;2.27;1.20;;;18.20;37.60;;;;;;5018816;28;20767;-64
2022/01/30 09:52:37;;;;;;;3.60;1.33;;;18.20;37.60;;;;;;5016887;28;20427;-63
2022/01/30 09:55:05;;;;;;;3.23;1.30;;;18.20;37.60;;;;;;5018834;28;20294;-63
2022/01/30 09:57:31;;;;;;;2.40;1.13;;;18.20;37.60;;;;;;5016392;28;20446;-63
2022/01/30 09:59:57;;;;;;;1.60;1.20;;;18.20;37.60;;;;;;5021083;28;20452;-61
2022/01/30 10:02:26;;;;;;;2.23;1.30;;;18.20;37.60;;;;;;5021665;28;20211;-64
2022/01/30 10:04:52;;;;;;;2.27;1.53;;;18.20;37.60;;;;;;5027845;28;20229;-60
2022/01/30 10:07:21;;;;;;;2.83;1.37;;;18.20;37.60;;;;;;5024620;28;20445;-64
2022/01/30 10:09:49;;;;;;;2.70;1.17;;;18.20;37.60;;;;;;5027631;28;20435;-63
2022/01/30 10:12:20;;;;;;;1.90;1.30;;;18.20;37.60;;;;;;5024564;28;21230;-65
2022/01/30 10:14:54;;;;;;;1.87;1.07;;;18.20;37.60;;;;;;5022267;28;20778;-62
2022/01/30 10:17:48;;;;;;;6.63;1.87;;;18.20;37.60;;;;;;5037428;28;20966;-66
2022/01/30 10:20:15;;;;;;;5.57;1.57;;;18.20;37.60;;;;;;5019560;28;20938;-66
2022/01/30 10:23:11;;;;;;;3.83;1.53;;;18.20;37.60;;;;;;5024345;28;20419;-66
2022/01/30 10:25:48;;;;;;;3.37;1.43;;;18.20;37.60;;;;;;5020107;28;20462;-65
2022/01/30 10:28:26;;;;;;;12.00;1.20;;;18.30;37.70;;;;;;5022443;28;20774;-64
2022/01/30 10:30:53;;;;;;;7.60;1.80;;;18.30;37.70;;;;;;5022222;28;20495;-65
2022/01/30 10:33:36;;;;;;;6.07;1.87;;;18.20;37.60;;;;;;5020891;28;20835;-65
2022/01/30 10:36:03;;;;;;;7.17;1.40;;;18.30;37.70;;;;;;5025066;28;20435;-65
2022/01/30 10:38:36;;;;;;;5.27;3.20;;;18.20;37.60;;;;;;5020572;28;20503;-65
2022/01/30 10:41:15;;;;;;;5.17;1.43;;;18.30;37.70;;;;;;5014739;28;20408;-64
2022/01/30 10:44:04;;;;;;;5.50;1.50;;;18.30;37.70;;;;;;5022017;28;20427;-63
2022/01/30 10:46:41;;;;;;;5.80;2.20;;;18.30;37.70;;;;;;5020527;28;20487;-64
2022/01/30 10:49:12;;;;;;;8.77;1.70;;;18.20;37.60;;;;;;5022813;28;20494;-64
2022/01/30 10:51:39;;;;;;;3.13;1.70;;;18.20;37.60;;;;;;5023363;28;20460;-63
2022/01/30 10:54:12;;;;;;;5.33;1.90;;;18.20;37.60;;;;;;5019698;28;20452;-63
2022/01/30 10:56:39;;;;;;;7.33;2.00;;;18.20;37.60;;;;;;5022503;28;20562;-63
2022/01/30 10:59:04;;;;;;;2.10;1.43;;;18.20;37.60;;;;;;5019140;28;20428;-62
2022/01/30 11:01:30;;;;;;;3.43;1.70;;;18.20;37.60;;;;;;5020012;28;20909;-62
2022/01/30 11:04:00;;;;;;;2.00;1.30;;;18.20;37.70;;;;;;5024142;28;20223;-62
2022/01/30 11:06:28;;;;;;;4.43;1.50;;;18.20;37.70;;;;;;5021001;28;20224;-62
2022/01/30 11:08:54;;;;;;;5.40;1.40;;;18.20;37.70;;;;;;5020747;28;20839;-64
2022/01/30 11:11:34;;;;;;;5.53;1.47;;;18.20;37.70;;;;;;5023491;28;20444;-63
2022/01/30 11:19:13;;;;;;;4.27;1.60;;;18.20;37.60;;;;;;5018852;28;20273;-63
2022/01/30 11:21:43;;;;;;;6.57;1.70;;;18.20;37.60;;;;;;5017757;28;20423;-64
2022/01/30 11:24:12;;;;;;;7.27;1.67;;;18.20;37.60;;;;;;5022556;28;20411;-63
2022/01/30 11:26:39;;;;;;;4.57;2.20;;;18.20;37.60;;;;;;5026078;28;20772;-62
2022/01/30 11:29:11;;;;;;;3.80;1.63;;;18.10;37.60;;;;;;5020002;28;20514;-61
2022/01/30 11:31:37;;;;;;;9.50;1.53;;;18.10;37.60;;;;;;5021235;28;20440;-61
2022/01/30 11:34:03;;;;;;;8.50;2.30;;;18.10;37.60;;;;;;5020277;28;20855;-61
2022/01/30 11:36:31;;;;;;;4.47;1.60;;;18.20;37.60;;;;;;5019869;28;20416;-61
2022/01/30 11:38:57;;;;;;;2.70;1.57;;;18.20;37.60;;;;;;5020651;28;20440;-62
2022/01/30 11:41:23;;;;;;;8.10;2.47;;;18.20;37.60;;;;;;5027723;28;20445;-61
2022/01/30 11:44:19;;;;;;;2.50;1.53;;;18.20;37.60;;;;;;5018580;28;20473;-61
2022/01/30 11:46:51;;;;;;;3.37;1.40;;;18.20;37.60;;;;;;5018160;28;20238;-61
2022/01/30 11:49:17;;;;;;;3.40;1.60;;;18.10;37.60;;;;;;5025438;28;20961;-64
2022/01/30 11:51:49;;;;;;;5.73;2.10;;;18.10;37.60;;;;;;5020131;28;20492;-62
2022/01/30 11:54:34;;;;;;;3.60;1.60;;;18.10;37.60;;;;;;5024131;28;20215;-63
2022/01/30 11:57:00;;;;;;;4.80;1.70;;;18.10;37.60;;;;;;5018204;28;20796;-64
2022/01/30 11:59:39;;;;;;;2.40;1.50;;;18.20;37.60;;;;;;5019971;28;20529;-64
2022/01/30 12:02:36;;;;;;;2.03;1.47;;;18.10;37.60;;;;;;5019343;28;20517;-64
2022/01/30 12:05:07;;;;;;;2.03;1.33;;;18.10;37.60;;;;;;5022988;28;21150;-64
2022/01/30 12:07:41;;;;;;;2.47;1.40;;;18.10;37.60;;;;;;5020183;28;20415;-64
2022/01/30 12:10:19;;;;;;;2.17;1.53;;;18.10;37.60;;;;;;5021114;28;20428;-63
2022/01/30 12:12:49;;;;;;;6.23;2.13;;;18.10;37.60;;;;;;5021676;28;20453;-64
2022/01/30 12:15:41;;;;;;;2.90;1.37;;;18.20;37.60;;;;;;5020601;28;20473;-64
2022/01/30 12:18:11;;;;;;;2.97;1.77;;;18.10;37.60;;;;;;5019113;28;20416;-64
2022/01/30 12:21:08;;;;;;;4.13;2.57;;;18.10;37.60;;;;;;5025301;28;20957;-64
2022/01/30 12:23:40;;;;;;;2.77;1.40;;;18.10;37.60;;;;;;5020046;28;20776;-64
2022/01/30 12:26:09;;;;;;;3.97;1.53;;;18.10;37.60;;;;;;5020523;28;20436;-63
2022/01/30 12:28:44;;;;;;;2.03;1.43;;;18.10;37.60;;;;;;5020897;28;20464;-64
2022/01/30 12:31:32;;;;;;;1.73;1.30;;;18.10;37.60;;;;;;5019617;28;20420;-64
2022/01/30 12:34:05;;;;;;;2.63;1.40;;;18.10;37.60;;;;;;5016547;28;20780;-64
2022/01/30 12:36:36;;;;;;;2.17;1.40;;;18.10;37.60;;;;;;5020034;28;20915;-64
2022/01/30 12:39:08;;;;;;;1.83;1.50;;;18.10;37.60;;;;;;5023247;28;20457;-64
2022/01/30 12:41:35;;;;;;;2.80;1.27;;;18.10;37.60;;;;;;5020483;28;20453;-64
2022/01/30 12:44:04;;;;;;;2.87;1.67;;;18.10;37.60;;;;;;5021537;28;20531;-63
2022/01/30 12:46:39;;;;;;;4.60;2.13;;;18.20;37.60;;;;;;5018817;28;20404;-63
2022/01/30 12:49:09;;;;;;;2.60;1.90;;;18.20;37.60;;;;;;5021615;28;20460;-63
2022/01/30 12:51:36;;;;;;;3.27;1.70;;;18.20;37.60;;;;;;5020544;28;20450;-63
2022/01/30 12:54:03;;;;;;;2.40;2.20;;;18.10;37.60;;;;;;5018065;28;20416;-64
2022/01/30 12:56:29;;;;;;;3.10;1.33;;;18.10;37.60;;;;;;5018351;28;20413;-61
2022/01/30 12:58:59;;;;;;;2.13;1.60;;;18.10;37.60;;;;;;5019822;28;20487;-63
2022/01/30 13:01:26;;;;;;;2.77;1.83;;;18.10;37.60;;;;;;5020845;28;20465;-63
2022/01/30 13:04:24;;;;;;;2.20;1.60;;;18.20;37.60;;;;;;5015096;28;20425;-63
2022/01/30 13:06:53;;;;;;;2.33;1.37;;;18.20;37.60;;;;;;5009605;28;20432;-60
2022/01/30 13:09:22;;;;;;;1.60;1.40;;;18.20;37.60;;;;;;5021923;28;20462;-63
2022/01/30 13:11:51;;;;;;;2.13;1.30;;;18.20;37.60;;;;;;5019662;28;20453;-63
2022/01/30 13:14:17;;;;;;;3.10;1.47;;;18.20;37.60;;;;;;5019466;28;20422;-63
2022/01/30 13:16:45;;;;;;;3.33;1.70;;;18.20;37.60;;;;;;5020140;28;20485;-62
2022/01/30 13:19:13;;;;;;;3.20;1.87;;;18.20;37.60;;;;;;5020727;28;20319;-62
2022/01/30 13:21:44;;;;;;;2.87;1.53;;;18.20;37.60;;;;;;5015921;28;20452;-64
2022/01/30 13:24:10;;;;;;;1.67;1.40;;;18.20;37.60;;;;;;5018645;28;20466;-64
2022/01/30 13:26:42;;;;;;;4.63;1.40;;;18.20;37.60;;;;;;5018177;28;20481;-62
2022/01/30 13:29:16;;;;;;;6.23;1.90;;;18.20;37.60;;;;;;5019889;28;20227;-63
2022/01/30 13:31:45;;;;;;;3.90;1.87;;;18.20;37.60;;;;;;5018540;28;20501;-63
2022/01/30 13:34:12;;;;;;;3.10;1.50;;;18.20;37.60;;;;;;5027633;28;20832;-63
2022/01/30 13:36:39;;;;;;;7.53;1.97;;;18.20;37.60;;;;;;5022569;28;20440;-62
2022/01/30 13:39:10;;;;;;;3.77;1.73;;;18.20;37.60;;;;;;5026653;28;20452;-62
2022/01/30 13:41:41;;;;;;;3.30;1.70;;;18.20;37.60;;;;;;5024598;28;20542;-62
2022/01/30 13:44:11;;;;;;;6.17;2.00;;;18.20;37.60;;;;;;5025933;28;20566;-63
2022/01/30 13:49:21;;;;;;;2.43;1.40;;;18.20;37.60;;;;;;5022311;28;20503;-62
2022/01/30 13:52:01;;;;;;;6.33;1.60;;;18.20;37.60;;;;;;5024538;28;20454;-62
2022/01/30 13:54:27;;;;;;;3.17;1.70;;;18.20;37.60;;;;;;5021753;28;20247;-63
2022/01/30 13:57:07;;;;;;;3.03;2.00;;;18.20;37.60;;;;;;5024437;28;20461;-63
2022/01/30 13:59:33;;;;;;;2.40;1.60;;;18.20;37.60;;;;;;5020291;28;20224;-63
2022/01/30 14:02:03;;;;;;;3.20;1.50;;;18.20;37.60;;;;;;5027637;28;20518;-63
2022/01/30 14:04:29;;;;;;;3.67;1.70;;;18.20;37.60;;;;;;5024882;28;20923;-64
2022/01/30 14:06:59;;;;;;;5.83;1.93;;;18.20;37.60;;;;;;5023283;28;20408;-61
2022/01/30 14:09:38;;;;;;;2.53;1.30;;;18.20;37.60;;;;;;5021195;28;20431;-61
2022/01/30 14:12:06;;;;;;;5.00;1.60;;;18.20;37.60;;;;;;5025668;28;20501;-61